Time;durP1;ratioP1;P1;durP2;ratioP2;P2;SDS_P1;SDS_P2;PMS_P1;PMS_P2;Temp;Humidity;BMP_temperature;BMP_pressure;BME280_temperature;BME280_humidity;BME280_pressure;Samples;Min_cycle;Max_cycle;Signal;HPM_P1;HPM_P2
2023/09/30 00:01:49;;;;;;;39.10;27.40;;;;;;;12.04;100.00;101433.45;105817;1251;60483;-77
2023/09/30 00:04:16;;;;;;;48.80;28.60;;;;;;;12.00;100.00;101429.63;105790;1253;73878;-76
2023/09/30 00:06:43;;;;;;;44.00;27.90;;;;;;;11.96;100.00;101427.90;105719;1255;63808;-76
2023/09/30 00:09:09;;;;;;;45.10;28.60;;;;;;;11.93;100.00;101430.15;105694;1251;71469;-77
2023/09/30 00:11:36;;;;;;;51.40;29.00;;;;;;;11.90;100.00;101430.48;105824;1255;60432;-78
2023/09/30 00:14:04;;;;;;;42.40;27.50;;;;;;;11.89;100.00;101429.86;105743;1251;60569;-76
2023/09/30 00:16:31;;;;;;;52.80;29.20;;;;;;;11.86;100.00;101430.66;105655;1253;74017;-77
2023/09/30 00:18:58;;;;;;;44.80;26.60;;;;;;;11.83;100.00;101429.79;105880;1251;63780;-75
2023/09/30 00:21:25;;;;;;;35.20;25.70;;;;;;;11.79;100.00;101431.36;106172;1255;72751;-75
2023/09/30 00:23:52;;;;;;;43.10;25.80;;;;;;;11.77;100.00;101427.65;105842;1253;61832;-75
2023/09/30 00:26:20;;;;;;;42.20;25.60;;;;;;;11.75;100.00;101430.75;105782;1253;60482;-75
2023/09/30 00:28:48;;;;;;;37.80;25.50;;;;;;;11.72;100.00;101427.88;105852;1255;72846;-76
2023/09/30 00:31:14;;;;;;;41.00;26.20;;;;;;;11.71;100.00;101425.85;105957;1255;63819;-76
2023/09/30 00:33:42;;;;;;;42.50;26.50;;;;;;;11.70;100.00;101428.71;105779;1251;72706;-78
2023/09/30 00:36:09;;;;;;;44.20;27.20;;;;;;;11.68;100.00;101430.73;105730;1257;61826;-77
2023/09/30 00:38:37;;;;;;;37.50;25.60;;;;;;;11.66;100.00;101425.77;105769;1253;60518;-75
2023/09/30 00:41:04;;;;;;;38.40;25.80;;;;;;;11.61;100.00;101424.79;105838;1252;72357;-76
2023/09/30 00:43:32;;;;;;;41.40;25.20;;;;;;;11.56;100.00;101425.70;105901;1255;63862;-77
2023/09/30 00:46:29;;;;;;;40.50;26.10;;;;;;;11.52;100.00;101426.83;105799;1253;72688;-76
2023/09/30 00:48:58;;;;;;;41.80;24.90;;;;;;;11.46;100.00;101425.73;105799;1255;62093;-75
2023/09/30 00:51:25;;;;;;;39.70;27.10;;;;;;;11.43;100.00;101426.40;105712;1251;60463;-76
2023/09/30 00:53:53;;;;;;;47.40;30.70;;;;;;;11.40;100.00;101426.70;105733;1253;73908;-76
2023/09/30 00:56:20;;;;;;;53.80;34.30;;;;;;;11.38;100.00;101424.91;105685;1258;63921;-76
2023/09/30 00:58:48;;;;;;;49.60;34.90;;;;;;;11.36;100.00;101425.00;105739;1253;72703;-77
2023/09/30 01:01:15;;;;;;;51.10;33.50;;;;;;;11.32;100.00;101426.77;105773;1256;61900;-75
2023/09/30 01:03:42;;;;;;;49.40;31.20;;;;;;;11.30;100.00;101421.98;106174;1253;60567;-77
2023/09/30 01:06:09;;;;;;;45.40;28.50;;;;;;;11.28;100.00;101421.77;105922;1251;73736;-76
2023/09/30 01:08:37;;;;;;;42.60;28.70;;;;;;;11.27;100.00;101420.90;105922;1255;63738;-76
2023/09/30 01:11:04;;;;;;;42.00;30.00;;;;;;;11.24;100.00;101418.42;105967;1253;72567;-77
2023/09/30 01:13:34;;;;;;;44.40;27.40;;;;;;;11.22;100.00;101422.72;105811;1253;61946;-79
2023/09/30 01:16:04;;;;;;;50.90;30.00;;;;;;;11.20;100.00;101423.16;105763;1255;60345;-74
2023/09/30 01:18:31;;;;;;;38.70;27.30;;;;;;;11.17;100.00;101420.31;105778;1257;73872;-76
2023/09/30 01:21:03;;;;;;;42.50;26.40;;;;;;;11.15;100.00;101422.19;105803;1255;62670;-74
2023/09/30 01:23:31;;;;;;;37.10;25.90;;;;;;;11.13;100.00;101421.25;105814;1253;72761;-76
2023/09/30 01:26:06;;;;;;;37.20;26.70;;;;;;;11.10;100.00;101420.84;105782;1256;60461;-76
2023/09/30 01:28:33;;;;;;;37.10;27.10;;;;;;;11.09;100.00;101422.48;105830;1255;60452;-76
2023/09/30 01:31:00;;;;;;;37.70;24.10;;;;;;;11.08;100.00;101420.98;105750;1253;73772;-77
2023/09/30 01:33:28;;;;;;;38.20;25.80;;;;;;;11.07;100.00;101417.54;105828;1255;63838;-76
2023/09/30 01:35:54;;;;;;;42.80;25.70;;;;;;;11.05;100.00;101423.41;105799;1251;72663;-74
2023/09/30 01:38:21;;;;;;;43.40;29.00;;;;;;;11.03;100.00;101422.98;105711;1255;61965;-77
2023/09/30 01:40:49;;;;;;;40.70;25.40;;;;;;;11.01;100.00;101422.90;105828;1253;60458;-74
2023/09/30 01:43:16;;;;;;;38.50;25.00;;;;;;;10.99;100.00;101422.96;105963;1251;73674;-74
2023/09/30 01:45:44;;;;;;;36.80;24.80;;;;;;;10.97;100.00;101424.47;105958;1258;63477;-75
2023/09/30 01:48:11;;;;;;;37.20;23.40;;;;;;;10.94;100.00;101425.14;105964;1255;72658;-77
2023/09/30 01:50:39;;;;;;;48.10;28.40;;;;;;;10.92;100.00;101423.50;105947;1254;60422;-77
2023/09/30 01:53:06;;;;;;;32.90;25.10;;;;;;;10.89;100.00;101423.45;105819;1256;60314;-75
2023/09/30 01:55:34;;;;;;;35.40;25.50;;;;;;;10.87;100.00;101426.52;106013;1251;73789;-78
2023/09/30 01:58:01;;;;;;;40.40;25.50;;;;;;;10.86;100.00;101422.23;105727;1256;63894;-75
2023/09/30 02:00:28;;;;;;;36.90;25.70;;;;;;;10.84;100.00;101424.61;105688;1254;72737;-76
2023/09/30 02:02:55;;;;;;;38.20;26.70;;;;;;;10.81;100.00;101424.92;105893;1255;62019;-75
2023/09/30 02:05:23;;;;;;;50.40;36.00;;;;;;;10.78;100.00;101422.58;105857;1253;60453;-76
2023/09/30 02:07:50;;;;;;;59.90;40.50;;;;;;;10.76;100.00;101423.05;105805;1254;73967;-77
2023/09/30 02:10:20;;;;;;;57.70;42.40;;;;;;;10.74;100.00;101420.52;105787;1256;63905;-78
2023/09/30 02:12:47;;;;;;;52.80;41.40;;;;;;;10.72;100.00;101419.91;105846;1253;72552;-79
2023/09/30 02:15:14;;;;;;;56.70;36.90;;;;;;;10.69;100.00;101420.57;105677;1255;60841;-76
2023/09/30 02:17:45;;;;;;;49.50;33.40;;;;;;;10.66;100.00;101419.32;105763;1251;60541;-77
2023/09/30 02:20:15;;;;;;;44.70;31.80;;;;;;;10.64;100.00;101419.80;105698;1258;72585;-78
2023/09/30 02:22:43;;;;;;;38.50;29.50;;;;;;;10.61;100.00;101415.20;105716;1256;62413;-76
2023/09/30 02:25:12;;;;;;;41.50;29.00;;;;;;;10.58;100.00;101416.02;105696;1254;72616;-75
2023/09/30 02:27:42;;;;;;;44.50;31.40;;;;;;;10.56;100.00;101414.54;106072;1255;62111;-76
2023/09/30 02:30:14;;;;;;;46.30;32.10;;;;;;;10.53;100.00;101414.31;105938;1252;60480;-77
2023/09/30 02:32:41;;;;;;;46.50;33.80;;;;;;;10.51;100.00;101411.27;105890;1255;73821;-77
2023/09/30 02:35:10;;;;;;;52.60;36.00;;;;;;;10.50;100.00;101411.17;105791;1255;62882;-77
2023/09/30 02:37:38;;;;;;;55.60;35.70;;;;;;;10.48;100.00;101410.89;105799;1253;72615;-75
2023/09/30 02:40:09;;;;;;;55.10;35.10;;;;;;;10.47;100.00;101412.34;105830;1255;61990;-76
2023/09/30 02:42:39;;;;;;;49.80;37.40;;;;;;;10.46;100.00;101410.27;105562;1253;60919;-74
2023/09/30 02:45:10;;;;;;;52.10;37.90;;;;;;;10.45;100.00;101410.17;105806;1253;72514;-74
2023/09/30 02:47:38;;;;;;;53.20;37.30;;;;;;;10.44;100.00;101411.44;105949;1256;63967;-76
2023/09/30 02:50:13;;;;;;;50.90;37.80;;;;;;;10.43;100.00;101416.23;105902;1253;72648;-78
2023/09/30 02:52:40;;;;;;;52.40;35.10;;;;;;;10.41;100.00;101414.89;105909;1256;60537;-77
2023/09/30 02:55:11;;;;;;;55.60;34.70;;;;;;;10.40;100.00;101413.88;105729;1253;61235;-76
2023/09/30 02:57:40;;;;;;;51.30;33.00;;;;;;;10.40;100.00;101415.83;105809;1256;72878;-78
2023/09/30 03:00:26;;;;;;;44.60;30.30;;;;;;;10.39;100.00;101414.99;105919;1255;64084;-75
2023/09/30 03:02:55;;;;;;;52.30;30.70;;;;;;;10.36;100.00;101410.89;105671;1253;72552;-76
2023/09/30 03:05:23;;;;;;;37.70;28.00;;;;;;;10.35;100.00;101408.54;105690;1258;61981;-77
2023/09/30 03:07:53;;;;;;;49.70;29.70;;;;;;;10.32;100.00;101404.98;106347;1251;60470;-74
2023/09/30 03:10:20;;;;;;;41.40;29.10;;;;;;;10.29;100.00;101408.26;105947;1252;72715;-76
2023/09/30 03:12:47;;;;;;;42.20;29.70;;;;;;;10.27;100.00;101407.67;105985;1253;62441;-76
2023/09/30 03:15:15;;;;;;;45.30;31.20;;;;;;;10.24;100.00;101404.63;105973;1255;72639;-77
2023/09/30 03:17:43;;;;;;;47.90;30.50;;;;;;;10.22;100.00;101404.90;105697;1256;60559;-79
2023/09/30 03:20:14;;;;;;;42.40;30.30;;;;;;;10.21;100.00;101407.77;105706;1253;60412;-76
2023/09/30 03:22:48;;;;;;;42.10;29.00;;;;;;;10.19;100.00;101403.30;105727;1256;73902;-76
2023/09/30 03:25:17;;;;;;;48.50;30.70;;;;;;;10.17;100.00;101405.29;105741;1255;63542;-75
2023/09/30 03:27:46;;;;;;;46.70;29.90;;;;;;;10.15;100.00;101405.20;105711;1254;72630;-77
2023/09/30 03:30:15;;;;;;;54.20;30.50;;;;;;;10.14;100.00;101406.69;105791;1255;60524;-76
2023/09/30 03:32:42;;;;;;;48.50;31.00;;;;;;;10.11;100.00;101399.79;105833;1253;60375;-77
2023/09/30 03:35:19;;;;;;;52.30;33.10;;;;;;;10.10;100.00;101402.61;105987;1256;73946;-75
2023/09/30 03:37:46;;;;;;;60.70;32.40;;;;;;;10.10;100.00;101402.49;105827;1256;64304;-75
2023/09/30 03:40:14;;;;;;;49.20;29.70;;;;;;;10.09;100.00;101401.29;105830;1256;72737;-74
2023/09/30 03:42:44;;;;;;;52.30;31.40;;;;;;;10.08;100.00;101401.00;105854;1255;61862;-75
2023/09/30 03:45:13;;;;;;;48.20;29.60;;;;;;;10.07;100.00;101401.90;105810;1252;61315;-76
2023/09/30 03:47:41;;;;;;;47.10;31.40;;;;;;;10.07;100.00;101402.09;106029;1251;73914;-74
2023/09/30 03:50:14;;;;;;;47.50;30.10;;;;;;;10.06;100.00;101405.12;106151;1255;62629;-76
2023/09/30 03:52:44;;;;;;;46.10;29.90;;;;;;;10.04;100.00;101405.20;105844;1255;71404;-78
2023/09/30 03:55:12;;;;;;;47.80;29.50;;;;;;;10.01;100.00;101404.10;105929;1255;61881;-77
2023/09/30 03:57:39;;;;;;;47.90;29.60;;;;;;;10.01;100.00;101405.69;105905;1256;60341;-75
2023/09/30 04:00:06;;;;;;;49.30;30.60;;;;;;;10.01;100.00;101410.06;105732;1255;73837;-77
2023/09/30 04:02:39;;;;;;;46.00;29.40;;;;;;;10.01;100.00;101409.17;105781;1256;63716;-76
2023/09/30 04:05:07;;;;;;;56.10;35.70;;;;;;;10.02;100.00;101410.55;105854;1251;72660;-75
2023/09/30 04:07:36;;;;;;;68.90;40.00;;;;;;;10.02;100.00;101412.09;105746;1256;61933;-76
2023/09/30 04:10:04;;;;;;;73.80;42.40;;;;;;;10.04;100.00;101410.98;105849;1254;60525;-75
2023/09/30 04:12:32;;;;;;;72.80;44.80;;;;;;;10.04;100.00;101412.34;105873;1256;73887;-75
2023/09/30 04:15:00;;;;;;;68.20;45.00;;;;;;;10.07;100.00;101411.54;105878;1256;63926;-76
2023/09/30 04:17:27;;;;;;;79.60;47.50;;;;;;;10.08;100.00;101415.30;105792;1253;72713;-77
2023/09/30 04:19:53;;;;;;;76.30;44.10;;;;;;;10.12;100.00;101414.80;105814;1253;61193;-74
2023/09/30 04:22:25;;;;;;;71.40;42.10;;;;;;;10.14;100.00;101415.73;105834;1256;60978;-75
2023/09/30 04:24:52;;;;;;;72.60;44.30;;;;;;;10.17;100.00;101415.78;105866;1256;73895;-76
2023/09/30 04:27:21;;;;;;;70.80;43.80;;;;;;;10.22;100.00;101420.82;105832;1256;63992;-77
2023/09/30 04:29:49;;;;;;;81.30;41.00;;;;;;;10.28;100.00;101416.19;105860;1254;71283;-76
2023/09/30 04:32:16;;;;;;;65.70;41.20;;;;;;;10.33;100.00;101416.31;106197;1255;62039;-75
2023/09/30 04:34:43;;;;;;;72.70;39.80;;;;;;;10.39;100.00;101420.23;105764;1255;60531;-74
2023/09/30 04:37:13;;;;;;;70.50;38.10;;;;;;;10.43;100.00;101422.48;105806;1264;72778;-74
2023/09/30 04:39:40;;;;;;;63.10;39.90;;;;;;;10.49;100.00;101419.79;105891;1255;63836;-74
2023/09/30 04:42:10;;;;;;;68.30;41.00;;;;;;;10.55;100.00;101422.99;105782;1253;71349;-74
2023/09/30 04:44:38;;;;;;;61.10;40.70;;;;;;;10.64;100.00;101425.02;105818;1256;62061;-77
2023/09/30 04:47:05;;;;;;;69.80;39.40;;;;;;;10.81;100.00;101428.05;105907;1255;60451;-74
2023/09/30 04:49:32;;;;;;;62.20;39.80;;;;;;;11.12;100.00;101428.48;105760;1255;73883;-75
2023/09/30 04:52:00;;;;;;;67.90;41.90;;;;;;;11.43;100.00;101430.41;105816;1255;63895;-74
2023/09/30 04:54:29;;;;;;;65.80;39.30;;;;;;;11.65;100.00;101430.04;105769;1255;72663;-74
2023/09/30 04:56:56;;;;;;;76.10;39.50;;;;;;;11.77;100.00;101430.27;105809;1256;61987;-73
2023/09/30 04:59:24;;;;;;;76.30;40.90;;;;;;;11.85;100.00;101434.22;105877;1251;60413;-75
2023/09/30 05:01:51;;;;;;;64.70;41.50;;;;;;;11.93;100.00;101431.22;105878;1256;73828;-75
2023/09/30 05:04:18;;;;;;;82.40;42.00;;;;;;;12.02;100.00;101435.31;105762;1256;63948;-74
2023/09/30 05:06:53;;;;;;;66.80;41.40;;;;;;;12.10;100.00;101432.27;105763;1254;72726;-74
2023/09/30 05:09:20;;;;;;;72.20;40.10;;;;;;;12.18;100.00;101432.31;105792;1258;62042;-74
2023/09/30 05:11:47;;;;;;;69.50;42.10;;;;;;;12.27;100.00;101432.92;105856;1251;60598;-76
2023/09/30 05:14:16;;;;;;;68.00;43.10;;;;;;;12.35;100.00;101435.45;106137;1255;73903;-77
2023/09/30 05:16:43;;;;;;;83.40;45.40;;;;;;;12.47;100.00;101430.61;105864;1253;62288;-77
2023/09/30 05:19:10;;;;;;;76.30;42.30;;;;;;;12.75;100.00;101433.61;105704;1256;72688;-75
2023/09/30 05:21:37;;;;;;;59.20;36.00;;;;;;;13.12;100.00;101434.69;105775;1255;61968;-75
2023/09/30 05:24:05;;;;;;;54.10;35.40;;;;;;;13.38;100.00;101436.34;105769;1251;60630;-76
2023/09/30 05:26:32;;;;;;;55.70;34.50;;;;;;;13.54;100.00;101434.73;105857;1257;72742;-74
2023/09/30 05:28:59;;;;;;;51.60;33.50;;;;;;;13.78;100.00;101438.34;105813;1257;63813;-76
2023/09/30 05:31:26;;;;;;;56.00;33.80;;;;;;;14.23;100.00;101430.33;105707;1251;72633;-75
2023/09/30 05:33:57;;;;;;;54.20;33.70;;;;;;;14.84;100.00;101431.56;105899;1256;60804;-77
2023/09/30 05:36:24;;;;;;;49.40;33.50;;;;;;;15.53;100.00;101428.98;105850;1264;60455;-77
2023/09/30 05:38:50;;;;;;;43.50;32.10;;;;;;;16.30;100.00;101429.80;105936;1255;73873;-76
2023/09/30 05:41:20;;;;;;;53.00;32.20;;;;;;;17.12;100.00;101434.67;105888;1256;63926;-77
2023/09/30 05:43:47;;;;;;;43.70;30.20;;;;;;;17.96;100.00;101435.92;105782;1255;72772;-77
2023/09/30 05:46:15;;;;;;;50.60;32.80;;;;;;;18.76;100.00;101430.77;105652;1257;60953;-75
2023/09/30 05:48:42;;;;;;;45.50;29.60;;;;;;;19.53;100.00;101430.56;105964;1251;60412;-76
2023/09/30 05:51:09;;;;;;;35.20;25.80;;;;;;;20.26;100.00;101432.11;105767;1256;73932;-76
2023/09/30 05:53:36;;;;;;;44.10;27.10;;;;;;;20.97;100.00;101431.73;105877;1256;62550;-77
2023/09/30 05:56:03;;;;;;;46.40;28.00;;;;;;;21.64;100.00;101429.59;106290;1251;72531;-76
2023/09/30 05:58:31;;;;;;;44.30;27.20;;;;;;;22.30;99.90;101431.54;105883;1256;60344;-76
2023/09/30 06:01:00;;;;;;;41.30;27.30;;;;;;;22.90;96.88;101427.65;105989;1256;60427;-76
2023/09/30 06:03:29;;;;;;;39.90;25.90;;;;;;;23.49;91.52;101428.66;105772;1256;73806;-75
2023/09/30 06:05:56;;;;;;;36.30;26.70;;;;;;;24.06;85.78;101427.27;105873;1256;63694;-77
2023/09/30 06:08:22;;;;;;;32.00;26.50;;;;;;;24.60;79.20;101426.23;105923;1256;72796;-75
2023/09/30 06:10:49;;;;;;;36.10;25.50;;;;;;;25.11;73.57;101425.00;105700;1256;60884;-77
2023/09/30 06:16:02;;;;;;;34.30;24.80;;;;;;;26.08;64.59;101426.88;102810;1289;601117;-75
2023/09/30 06:18:30;;;;;;;36.10;26.30;;;;;;;26.49;61.02;101426.83;104935;1270;59338;-75
2023/09/30 06:20:58;;;;;;;38.10;29.00;;;;;;;26.93;58.49;101419.73;104882;1270;60177;-78
2023/09/30 06:23:25;;;;;;;35.90;26.40;;;;;;;27.39;55.16;101412.92;104880;1265;72300;-76
2023/09/30 06:25:52;;;;;;;37.30;27.60;;;;;;;27.84;52.14;101416.49;104813;1270;62397;-77
2023/09/30 06:28:25;;;;;;;35.70;28.60;;;;;;;28.26;50.49;101419.11;104807;1271;73567;-76
2023/09/30 06:30:53;;;;;;;40.10;29.30;;;;;;;28.62;48.53;101419.55;104786;1264;59536;-79
2023/09/30 06:33:21;;;;;;;40.80;30.30;;;;;;;28.97;47.24;101415.66;104898;1263;61058;-77
2023/09/30 06:35:52;;;;;;;45.70;30.60;;;;;;;29.33;45.44;101416.13;104882;1268;71248;-78
2023/09/30 06:38:19;;;;;;;35.20;29.00;;;;;;;29.69;44.01;101416.14;105149;1263;63651;-77
2023/09/30 06:40:47;;;;;;;47.00;32.20;;;;;;;30.01;42.84;101411.20;105068;1264;71707;-78
2023/09/30 06:43:16;;;;;;;39.10;31.20;;;;;;;30.33;41.41;101407.35;105187;1263;60115;-75
2023/09/30 06:45:44;;;;;;;57.90;31.50;;;;;;;30.62;40.57;101404.64;104994;1263;59551;-78
2023/09/30 06:48:15;;;;;;;58.20;32.60;;;;;;;30.87;39.82;101400.42;105007;1267;71243;-79
2023/09/30 06:50:48;;;;;;;63.00;33.10;;;;;;;31.02;39.32;101398.65;104982;1263;62325;-78
2023/09/30 06:53:16;;;;;;;37.50;31.50;;;;;;;31.25;38.78;101398.67;105094;1262;72790;-75
2023/09/30 06:55:44;;;;;;;45.20;30.30;;;;;;;31.43;38.39;101399.23;104947;1264;61171;-75
2023/09/30 06:58:12;;;;;;;41.60;31.00;;;;;;;31.58;37.93;101401.61;105055;1268;59580;-77
2023/09/30 07:00:42;;;;;;;45.10;30.90;;;;;;;31.74;37.63;101394.80;105466;1256;71798;-76
2023/09/30 07:03:10;;;;;;;34.80;30.80;;;;;;;31.94;36.93;101390.99;105361;1257;63666;-78
2023/09/30 07:05:37;;;;;;;45.40;31.40;;;;;;;32.12;36.01;101391.60;105275;1256;72554;-77
2023/09/30 07:08:05;;;;;;;42.80;31.30;;;;;;;32.29;35.19;101391.14;105281;1262;60863;-76
2023/09/30 07:10:32;;;;;;;45.60;33.10;;;;;;;32.52;34.44;101388.80;105338;1260;59686;-77
2023/09/30 07:13:02;;;;;;;45.40;31.60;;;;;;;32.77;34.46;101386.67;105422;1256;72852;-77
2023/09/30 07:15:30;;;;;;;45.90;35.30;;;;;;;33.02;33.12;101384.76;105513;1259;63797;-74
2023/09/30 07:17:58;;;;;;;43.20;34.60;;;;;;;33.30;32.47;101385.14;105541;1254;72737;-76
2023/09/30 07:20:26;;;;;;;47.20;33.80;;;;;;;33.60;31.63;101382.03;106110;1254;59772;-80
2023/09/30 07:22:53;;;;;;;44.40;33.00;;;;;;;33.87;30.97;101384.11;105641;1259;59769;-74
2023/09/30 07:25:38;;;;;;;46.80;30.90;;;;;;;34.07;30.27;101379.02;105649;1254;71852;-77
2023/09/30 07:28:11;;;;;;;51.30;37.30;;;;;;;34.14;29.62;101380.06;105485;1254;63038;-77
2023/09/30 07:30:39;;;;;;;45.60;29.30;;;;;;;34.10;29.23;101377.71;105672;1255;73258;-76
2023/09/30 07:33:07;;;;;;;41.80;28.60;;;;;;;34.06;29.45;101385.96;105636;1254;59793;-80
2023/09/30 07:35:38;;;;;;;40.00;27.80;;;;;;;34.10;29.18;101377.05;105585;1256;61380;-76
2023/09/30 07:38:07;;;;;;;34.60;27.00;;;;;;;34.21;29.04;101381.77;105574;1259;75129;-77
2023/09/30 07:40:34;;;;;;;35.40;26.40;;;;;;;34.29;28.86;101380.02;105490;1256;62549;-80
2023/09/30 07:43:01;;;;;;;39.70;27.20;;;;;;;34.39;28.64;101383.45;105467;1256;71556;-80
2023/09/30 07:45:29;;;;;;;41.80;26.10;;;;;;;34.57;28.32;101384.60;105533;1256;59956;-80
2023/09/30 07:47:58;;;;;;;41.10;25.30;;;;;;;34.80;27.81;101377.89;105695;1254;59644;-76
2023/09/30 07:50:26;;;;;;;34.70;25.20;;;;;;;34.98;27.26;101374.55;105723;1259;75327;-75
2023/09/30 07:52:54;;;;;;;34.80;23.30;;;;;;;34.98;26.94;101374.17;105705;1257;62734;-76
2023/09/30 07:55:22;;;;;;;31.40;22.20;;;;;;;35.12;27.03;101371.68;105571;1259;73305;-78
2023/09/30 07:57:49;;;;;;;34.10;23.40;;;;;;;35.30;26.46;101367.69;105475;1259;59909;-77
2023/09/30 08:00:17;;;;;;;30.20;23.10;;;;;;;35.36;25.50;101367.52;105460;1259;59568;-77
2023/09/30 08:02:45;;;;;;;30.40;19.80;;;;;;;35.32;24.92;101366.08;105803;1256;71850;-77
2023/09/30 08:05:12;;;;;;;28.10;17.00;;;;;;;35.28;24.70;101363.10;105541;1259;63691;-77
2023/09/30 08:07:40;;;;;;;24.00;14.70;;;;;;;35.46;24.41;101364.09;105654;1256;71856;-77
2023/09/30 08:10:13;;;;;;;25.70;15.50;;;;;;;35.57;24.50;101361.06;105505;1255;60041;-77
2023/09/30 08:12:41;;;;;;;21.70;12.90;;;;;;;35.71;24.09;101356.89;105558;1257;59536;-77
2023/09/30 08:15:11;;;;;;;19.70;10.70;;;;;;;35.80;23.70;101354.41;105487;1259;71948;-75
2023/09/30 08:17:40;;;;;;;18.80;10.70;;;;;;;35.97;23.54;101356.42;105614;1259;61899;-76
2023/09/30 08:20:11;;;;;;;18.90;10.20;;;;;;;36.19;23.34;101357.13;105597;1259;71295;-76
2023/09/30 08:22:40;;;;;;;24.60;11.90;;;;;;;36.27;23.38;101357.27;105562;1255;59633;-76
2023/09/30 08:25:10;;;;;;;19.00;10.10;;;;;;;36.42;23.17;101353.05;105640;1254;59747;-79
2023/09/30 08:27:38;;;;;;;17.20;10.60;;;;;;;36.64;22.81;101352.77;105444;1255;71803;-75
2023/09/30 08:30:07;;;;;;;17.10;9.40;;;;;;;36.84;22.58;101349.40;105611;1254;59862;-79
2023/09/30 08:32:35;;;;;;;19.10;8.80;;;;;;;37.05;22.34;101346.70;105634;1256;71686;-79
2023/09/30 08:35:04;;;;;;;14.70;8.50;;;;;;;37.21;21.71;101344.21;105511;1259;59579;-75
2023/09/30 08:37:31;;;;;;;13.90;8.40;;;;;;;37.30;21.33;101345.92;105571;1256;59562;-74
2023/09/30 08:39:59;;;;;;;14.10;8.90;;;;;;;37.42;21.65;101339.25;105475;1254;62971;-75
2023/09/30 08:42:32;;;;;;;19.10;9.20;;;;;;;37.66;21.46;101341.20;105552;1254;59987;-75
2023/09/30 08:45:01;;;;;;;17.10;8.00;;;;;;;37.91;20.88;101336.01;105914;1256;63856;-78
2023/09/30 08:47:29;;;;;;;11.00;6.90;;;;;;;38.06;20.46;101333.39;105652;1256;59682;-75
2023/09/30 08:49:59;;;;;;;13.10;7.10;;;;;;;38.17;20.14;101334.00;105568;1254;59798;-76
2023/09/30 08:52:27;;;;;;;12.20;7.40;;;;;;;38.26;19.55;101335.99;105620;1257;71693;-78
2023/09/30 08:54:55;;;;;;;11.60;6.40;;;;;;;38.28;19.35;101334.60;105398;1254;59756;-77
2023/09/30 08:57:22;;;;;;;12.00;6.60;;;;;;;38.26;19.30;101337.75;105559;1259;62723;-80
2023/09/30 08:59:50;;;;;;;11.00;6.80;;;;;;;38.31;18.95;101333.96;105414;1259;59649;-76
2023/09/30 09:02:17;;;;;;;13.50;6.70;;;;;;;38.43;18.85;101330.83;105451;1255;60793;-75
2023/09/30 09:04:49;;;;;;;13.40;7.10;;;;;;;38.59;18.78;101328.08;105495;1259;63079;-74
2023/09/30 09:07:16;;;;;;;16.40;6.90;;;;;;;38.77;18.66;101326.23;105478;1259;59738;-75
2023/09/30 09:10:03;;;;;;;9.40;5.40;;;;;;;38.84;18.30;101322.75;105464;1255;63783;-78
2023/09/30 09:12:33;;;;;;;9.80;6.20;;;;;;;38.92;18.09;101318.65;105669;1255;59734;-78
2023/09/30 09:15:01;;;;;;;10.60;6.40;;;;;;;39.05;17.63;101311.56;105403;1257;60091;-75
2023/09/30 09:17:41;;;;;;;13.50;6.00;;;;;;;39.10;17.74;101307.20;105513;1254;63028;-77
2023/09/30 09:20:10;;;;;;;9.70;5.80;;;;;;;39.07;17.47;101305.04;105454;1257;59711;-76
2023/09/30 09:22:42;;;;;;;13.80;5.90;;;;;;;39.03;17.71;101300.25;105471;1259;63773;-76
2023/09/30 09:25:10;;;;;;;10.10;5.60;;;;;;;39.14;17.54;101303.38;105741;1256;59775;-73
2023/09/30 09:27:38;;;;;;;9.80;4.80;;;;;;;39.24;16.95;101303.54;105725;1254;59656;-77
2023/09/30 09:30:20;;;;;;;9.60;5.10;;;;;;;39.27;17.13;101301.63;105692;1255;63024;-75
2023/09/30 09:33:07;;;;;;;10.40;5.50;;;;;;;39.31;17.18;101298.23;105631;1257;62748;-77
2023/09/30 09:35:36;;;;;;;9.70;5.00;;;;;;;39.35;17.16;101295.29;105525;1257;62480;-76
2023/09/30 09:38:07;;;;;;;11.00;4.80;;;;;;;39.45;16.89;101288.38;105537;1262;59650;-78
2023/09/30 09:40:35;;;;;;;8.20;4.80;;;;;;;39.59;16.78;101287.98;105447;1259;59704;-78
2023/09/30 09:43:05;;;;;;;9.00;4.20;;;;;;;39.69;16.37;101285.64;105606;1257;75951;-74
2023/09/30 09:45:37;;;;;;;12.80;4.60;;;;;;;39.65;16.04;101279.44;105514;1259;59566;-76
2023/09/30 09:48:07;;;;;;;7.70;4.90;;;;;;;39.65;16.21;101280.14;105647;1259;62509;-77
2023/09/30 09:50:38;;;;;;;8.10;4.50;;;;;;;39.72;16.41;101276.37;105310;1257;59699;-78
2023/09/30 09:53:06;;;;;;;8.00;4.80;;;;;;;39.86;16.13;101274.98;105460;1256;59661;-78
2023/09/30 09:55:33;;;;;;;4.90;3.90;;;;;;;39.99;15.97;101271.15;105266;1256;62885;-79
2023/09/30 09:58:07;;;;;;;5.30;4.70;;;;;;;40.07;15.59;101266.88;105397;1263;59703;-77
2023/09/30 10:00:34;;;;;;;4.80;4.30;;;;;;;40.11;15.74;101264.89;105489;1256;62541;-75
2023/09/30 10:03:02;;;;;;;6.20;4.10;;;;;;;39.97;15.60;101263.73;105278;1256;59642;-77
2023/09/30 10:05:31;;;;;;;7.00;4.70;;;;;;;39.75;15.97;101260.50;105510;1257;59728;-77
2023/09/30 10:08:02;;;;;;;5.80;4.00;;;;;;;39.63;16.01;101259.92;105953;1256;64308;-75
2023/09/30 10:10:29;;;;;;;7.20;4.20;;;;;;;39.53;15.70;101258.97;105614;1254;59647;-75
2023/09/30 10:12:57;;;;;;;6.80;3.80;;;;;;;39.50;15.66;101257.53;105475;1256;64830;-79
2023/09/30 10:15:25;;;;;;;9.90;4.80;;;;;;;39.44;15.77;101255.87;105548;1259;60007;-79
2023/09/30 10:18:06;;;;;;;10.90;4.50;;;;;;;39.32;15.54;101250.98;105522;1256;59731;-75
2023/09/30 10:20:44;;;;;;;4.90;3.80;;;;;;;39.06;15.55;101250.45;105449;1259;63065;-75
2023/09/30 10:23:33;;;;;;;7.40;4.70;;;;;;;38.88;15.27;101243.20;105603;1257;59731;-77
2023/09/30 10:26:23;;;;;;;5.80;4.20;;;;;;;38.93;15.91;101240.11;105456;1257;63293;-77
2023/09/30 10:28:52;;;;;;;7.00;3.70;;;;;;;39.04;15.83;101236.37;105553;1259;60464;-76
2023/09/30 10:31:24;;;;;;;8.60;4.40;;;;;;;39.03;15.74;101231.50;105633;1256;60461;-76
2023/09/30 10:46:29;;;;;;;7.30;4.90;;;;;;;38.32;15.53;101217.11;102830;1290;601447;-79
2023/09/30 10:48:57;;;;;;;4.70;4.10;;;;;;;38.22;15.56;101218.02;105070;1269;59798;-74
2023/09/30 10:51:25;;;;;;;7.70;5.40;;;;;;;38.20;15.67;101210.89;105081;1270;59409;-80
2023/09/30 10:53:56;;;;;;;6.60;4.10;;;;;;;38.17;15.61;101216.52;105132;1270;63574;-77
2023/09/30 10:56:32;;;;;;;7.20;5.00;;;;;;;38.10;15.58;101213.95;105016;1270;59283;-76
2023/09/30 10:59:02;;;;;;;7.70;4.60;;;;;;;37.93;15.73;101210.78;105497;1254;211775;-78
2023/09/30 11:01:36;;;;;;;9.30;5.30;;;;;;;37.78;15.89;101205.88;105910;1251;59233;-78
2023/09/30 11:04:05;;;;;;;11.50;4.40;;;;;;;37.66;15.92;101205.04;105892;1257;59378;-78
2023/09/30 11:06:34;;;;;;;10.20;4.90;;;;;;;37.54;15.98;101202.55;105839;1255;63348;-76
2023/09/30 11:09:02;;;;;;;8.50;5.60;;;;;;;37.44;16.30;101204.25;105887;1251;59263;-78
2023/09/30 11:11:33;;;;;;;9.20;5.70;;;;;;;37.38;16.50;101204.62;105866;1255;63792;-77
2023/09/30 11:14:01;;;;;;;10.70;5.00;;;;;;;37.36;16.55;101200.16;105738;1257;59733;-77
2023/09/30 11:16:28;;;;;;;7.40;5.30;;;;;;;37.23;16.65;101195.85;105702;1256;59601;-79
2023/09/30 11:18:56;;;;;;;9.60;5.10;;;;;;;37.10;16.70;101192.86;105799;1257;72163;-79
2023/09/30 11:21:25;;;;;;;8.80;5.50;;;;;;;36.98;16.88;101191.42;105866;1251;60041;-78
2023/09/30 11:23:52;;;;;;;13.70;6.20;;;;;;;36.76;16.97;101187.45;105789;1251;63960;-79